Data for 11/03/2013

Time Sea-Level Adjusted Pressure Absolute Pressure Temperature Relative Humidity Dew Point   
(mb) (inHg) (mb) (inHg) (C) (F) (%) (C) (F)
00:05 1008 29.77 837 24.72 0.8 33.5 93 -0.2 31.7
00:10 1008 29.77 837 24.72 1 33.8 92 -0.2 31.7
00:15 1008 29.77 837 24.72 0.8 33.5 93 -0.2 31.7
00:20 1008 29.77 837 24.72 1 33.8 92 -0.2 31.7
00:25 1008 29.77 837 24.72 1.3 34.3 90 -0.2 31.7
00:30 1008 29.77 837 24.72 1.4 34.5 90 -0 31.9
00:35 1008 29.77 837 24.72 1.3 34.4 90 -0.1 31.9
00:40 1008 29.77 837 24.72 1.4 34.5 90 0 32
00:45 1008 29.77 837 24.72 1.4 34.5 91 0 32
00:50 1008 29.77 838 24.75 1.4 34.4 91 -0 32
00:55 1008 29.77 838 24.75 1.3 34.4 91 0.1 32.1
02:00 1008 29.77 838 24.75 1.3 34.4 91 0.1 32.2
02:05 1008 29.77 838 24.75 1.4 34.5 92 0.2 32.4
02:10 1009 29.8 838 24.75 1.4 34.5 91 0 32
02:15 1008 29.77 838 24.75 0.9 33.6 93 -0.2 31.7
02:20 1008 29.77 838 24.75 0.6 33.1 93 -0.4 31.4
02:25 1009 29.8 838 24.75 0.5 32.9 94 -0.4 31.3
02:30 1009 29.8 838 24.75 0.5 32.8 94 -0.4 31.3
02:35 1008 29.77 838 24.75 0.4 32.7 95 -0.4 31.3
02:40 1008 29.77 838 24.75 0.4 32.7 95 -0.4 31.3
02:45 1008 29.77 838 24.75 0.6 33 94 -0.3 31.4
02:50 1008 29.77 838 24.75 0.8 33.4 92 -0.3 31.4
02:55 1009 29.8 838 24.75 0.9 33.6 90 -0.6 30.9
03:00 1009 29.8 838 24.75 1.1 33.9 85 -1.1 30
03:05 1008 29.77 838 24.75 1.1 34 90 -0.3 31.4
03:10 1009 29.8 838 24.75 0.6 33.1 93 -0.4 31.2
03:15 1008 29.77 838 24.75 0.6 33 93 -0.4 31.3
03:20 1008 29.77 838 24.75 0.7 33.3 91 -0.6 31
03:25 1008 29.77 838 24.75 0.9 33.7 85 -1.4 29.6
03:30 1008 29.77 838 24.75 1.2 34.2 81 -1.7 29
03:35 1008 29.77 838 24.75 1.3 34.3 78 -2.2 28.1
03:40 1008 29.77 837 24.72 1.3 34.4 75 -2.7 27.2
03:45 1008 29.77 837 24.72 1.5 34.7 71 -3.2 26.3
03:50 1008 29.77 837 24.72 1.5 34.7 71 -3.2 26.3
03:55 1008 29.77 838 24.75 1.5 34.6 70 -3.4 26
04:00 1009 29.8 838 24.75 1.5 34.7 70 -3.5 25.8
04:05 1008 29.77 838 24.75 1.6 34.9 69 -3.4 25.9
04:10 1008 29.77 838 24.75 1.7 35 70 -3.3 26
04:15 1008 29.77 838 24.75 1.6 34.9 72 -2.8 26.9
04:20 1008 29.77 838 24.75 1.6 34.8 73 -2.7 27.1
04:25 1008 29.77 838 24.75 1.5 34.8 73 -2.8 27
04:30 1008 29.77 838 24.75 1.6 34.9 72 -2.9 26.8
04:35 1008 29.77 838 24.75 1.7 35 70 -3.1 26.4
04:40 1008 29.77 838 24.75 1.7 35.1 72 -2.7 27.1
04:45 1009 29.8 838 24.75 1.6 34.8 76 -2.2 28
04:50 1009 29.8 838 24.75 1.4 34.6 77 -2.2 28
04:55 1008 29.77 838 24.75 1.4 34.5 75 -2.5 27.5
05:00 1008 29.77 838 24.75 1.4 34.6 76 -2.3 27.9
05:05 1008 29.77 838 24.75 1.4 34.6 76 -2.3 27.8
05:10 1008 29.77 838 24.75 1.4 34.6 75 -2.5 27.4
05:15 1008 29.77 838 24.75 1.5 34.6 77 -2.2 28
05:20 1008 29.77 838 24.75 1.4 34.5 76 -2.3 27.8
05:25 1008 29.77 838 24.75 1.3 34.4 73 -3 26.5
05:30 1008 29.77 838 24.75 1.4 34.5 70 -3.5 25.7
05:35 1008 29.77 838 24.75 1.4 34.4 70 -3.5 25.7
05:40 1008 29.77 838 24.75 1.3 34.4 70 -3.6 25.6
05:45 1009 29.8 838 24.75 1.3 34.3 69 -3.8 25.1
05:50 1009 29.8 838 24.75 1.3 34.3 70 -3.5 25.7
05:55 1009 29.8 838 24.75 1.2 34.2 69 -3.8 25.2
06:00 1009 29.8 838 24.75 1.2 34.2 70 -3.7 25.3
06:05 1009 29.8 838 24.75 1.2 34.1 69 -3.9 24.9
06:10 1009 29.8 838 24.75 1.1 34.1 70 -3.7 25.3
06:15 1009 29.8 838 24.75 1 33.9 68 -4.2 24.5
06:20 1009 29.8 838 24.75 0.9 33.7 67 -4.5 23.9
06:25 1009 29.8 838 24.75 0.9 33.5 66 -4.9 23.2
06:30 1009 29.8 838 24.75 0.8 33.4 67 -4.7 23.6
06:35 1009 29.8 838 24.75 0.7 33.3 68 -4.5 23.9
06:40 1009 29.8 838 24.75 0.6 33.2 68 -4.5 23.8
06:45 1009 29.8 838 24.75 0.5 32.9 67 -4.9 23.1
06:50 1009 29.8 838 24.75 0.3 32.6 68 -5 23
06:55 1009 29.8 838 24.75 0.3 32.5 67 -5.1 22.8
07:00 1009 29.8 838 24.75 0.2 32.4 65 -5.5 22.1
07:05 1009 29.8 838 24.75 0.2 32.3 65 -5.6 22
07:10 1009 29.8 838 24.75 0.1 32.1 65 -5.8 21.5
07:15 1009 29.8 838 24.75 -0 31.9 62 -6.4 20.5
07:20 1009 29.8 838 24.75 -0.1 31.8 62 -6.6 20.2
07:25 1009 29.8 839 24.78 -0.2 31.7 63 -6.5 20.3
07:30 1009 29.8 839 24.78 -0.2 31.6 62 -6.6 20.1
07:35 1009 29.8 839 24.78 -0.3 31.5 61 -6.9 19.6
07:40 1009 29.8 839 24.78 -0.4 31.3 62 -6.8 19.7
07:45 1009 29.8 839 24.78 -0.4 31.3 60 -7.2 19.1
07:50 1009 29.8 839 24.78 -0.4 31.3 62 -6.9 19.6
07:55 1009 29.8 839 24.78 -0.4 31.3 59 -7.4 18.6
08:00 1009 29.8 839 24.78 -0.4 31.3 55 -8.4 16.9
08:05 1009 29.8 839 24.78 -0.3 31.4 53 -8.8 16.1
08:10 1009 29.8 839 24.78 -0.4 31.3 54 -8.7 16.3
08:15 1009 29.8 839 24.78 -0.4 31.2 54 -8.7 16.4
08:20 1010 29.83 839 24.78 -0.5 31.1 51 -9.6 14.8
08:25 1010 29.83 839 24.78 -0.5 31.1 51 -9.4 15.1
08:30 1010 29.83 839 24.78 -0.5 31.1 50 -9.6 14.8
08:35 1010 29.83 839 24.78 -0.6 30.9 51 -9.5 14.8
08:40 1010 29.83 839 24.78 -0.7 30.8 51 -9.5 14.9
08:45 1010 29.83 839 24.78 -0.8 30.6 51 -9.6 14.8
08:50 1010 29.83 839 24.78 -0.9 30.4 52 -9.5 14.9
08:55 1010 29.83 839 24.78 -1.2 29.9 58 -8.3 17
09:00 1010 29.83 839 24.78 -1.3 29.6 61 -7.9 17.8
09:05 1010 29.83 839 24.78 -1.4 29.4 62 -7.7 18.1
09:10 1010 29.83 839 24.78 -1.6 29.1 61 -8.1 17.4
09:15 1010 29.83 839 24.78 -1.7 29 59 -8.6 16.6
09:20 1010 29.83 839 24.78 -1.6 29.1 59 -8.5 16.7
09:25 1010 29.83 839 24.78 -1.6 29.2 58 -8.8 16.1
09:30 1010 29.83 839 24.78 -1.5 29.4 57 -9 15.8
09:35 1010 29.83 840 24.81 -1.3 29.6 57 -8.8 16.1
09:40 1010 29.83 840 24.81 -1.3 29.7 58 -8.5 16.6
09:45 1010 29.83 840 24.81 -1.2 29.8 60 -7.9 17.7
09:50 1010 29.83 840 24.81 -1.5 29.3 62 -7.9 17.7
09:55 1010 29.83 840 24.81 -1.5 29.3 61 -8 17.5
10:00 1010 29.83 840 24.81 -1.3 29.6 61 -7.9 17.7
10:05 1011 29.85 840 24.81 -1.5 29.4 58 -8.6 16.5
10:10 1011 29.85 840 24.81 -1.1 30.1 51 -9.9 14.2
10:15 1011 29.85 840 24.81 -0.5 31.2 51 -9.4 15
10:20 1010 29.83 840 24.81 0.1 32.1 52 -8.7 16.4
10:25 1010 29.83 840 24.81 -0.3 31.5 56 -8 17.6
10:30 1010 29.83 840 24.81 -0.5 31.2 57 -7.9 17.8
10:35 1010 29.83 840 24.81 -0 31.9 56 -7.7 18.2
10:40 1010 29.83 840 24.81 0.3 32.5 53 -8.1 17.3
10:45 1010 29.83 840 24.81 0.5 32.9 50 -8.6 16.5
10:50 1010 29.83 840 24.81 0.8 33.5 50 -8.3 17
10:55 1010 29.83 840 24.81 1.2 34.1 50 -8 17.6
11:00 1010 29.83 840 24.81 1.2 34.2 53 -7.2 19
11:05 1011 29.85 840 24.81 0.8 33.4 54 -7.5 18.5
11:10 1011 29.85 840 24.81 0.8 33.4 53 -7.8 18
11:15 1011 29.85 840 24.81 1 33.9 52 -7.7 18.1
11:20 1011 29.85 840 24.81 1 33.7 56 -7 19.5
11:25 1011 29.85 840 24.81 1.3 34.4 56 -6.6 20.2
11:30 1010 29.83 840 24.81 1.9 35.4 47 -8.2 17.3
11:35 1010 29.83 840 24.81 2.7 36.9 42 -8.9 16
11:40 1010 29.83 840 24.81 2.8 37 38 -10.1 13.9
11:45 1010 29.83 840 24.81 2.2 36 35 -11.8 10.7
11:50 1010 29.83 840 24.81 2.5 36.6 35 -11.4 11.4
11:55 1010 29.83 840 24.81 3.1 37.6 36 -10.6 12.9
12:00 1010 29.83 840 24.81 2.6 36.6 34 -11.8 10.8
12:05 1010 29.83 840 24.81 2.4 36.3 36 -11.1 12
12:10 1010 29.83 840 24.81 2.6 36.6 37 -10.8 12.6
12:15 1011 29.85 840 24.81 2.5 36.4 39 -10.1 13.8
12:20 1011 29.85 840 24.81 2.6 36.7 35 -11.5 11.2
12:25 1011 29.85 840 24.81 2.7 36.8 35 -11.4 11.5
12:30 1011 29.85 840 24.81 2.9 37.3 36 -10.9 12.5
12:35 1011 29.85 840 24.81 2.8 37.1 33 -12.1 10.2
12:40 1011 29.85 840 24.81 2.5 36.5 35 -11.6 11
12:45 1011 29.85 840 24.81 2.3 36.1 36 -11.2 11.9
12:50 1011 29.85 840 24.81 2.4 36.3 34 -12 10.5
12:55 1011 29.85 840 24.81 2.6 36.6 33 -12.3 9.9
13:00 1011 29.85 840 24.81 2.6 36.6 33 -12.2 10
13:05 1011 29.85 840 24.81 2.3 36.2 34 -12 10.4
13:10 1011 29.85 840 24.81 2.2 36 35 -11.6 11.1
13:15 1011 29.85 840 24.81 2.5 36.6 36 -11.1 12
13:20 1011 29.85 840 24.81 2.7 36.9 34 -11.6 11.2
13:25 1011 29.85 840 24.81 2.8 37 36 -11 12.2
13:30 1011 29.85 840 24.81 2.8 37 35 -11.3 11.7
13:35 1011 29.85 840 24.81 2.4 36.4 36 -11.3 11.6
13:40 1011 29.85 840 24.81 2.3 36.1 36 -11.4 11.4
13:45 1011 29.85 840 24.81 2.3 36.1 36 -11.2 11.8
13:50 1011 29.85 840 24.81 3 37.3 34 -11.4 11.4
13:55 1011 29.85 840 24.81 2.7 36.9 35 -11.1 12
14:00 1011 29.85 840 24.81 2.2 36 38 -10.7 12.7
14:05 1011 29.85 840 24.81 2.2 35.9 37 -11.1 12
14:10 1011 29.85 840 24.81 2.2 36 38 -10.7 12.7
14:15 1011 29.85 840 24.81 2.5 36.5 38 -10.6 13
14:20 1011 29.85 840 24.81 2.7 36.8 36 -11.1 12
14:25 1011 29.85 840 24.81 2.3 36.1 38 -10.6 12.9
14:30 1011 29.85 840 24.81 2.2 36 40 -10.1 13.9
14:35 1011 29.85 840 24.81 2.3 36.1 40 -9.9 14.2
14:40 1011 29.85 840 24.81 2.1 35.8 41 -9.7 14.6
14:45 1011 29.85 840 24.81 1.7 35 41 -10.2 13.6
14:50 1011 29.85 840 24.81 1.8 35.3 41 -10.1 13.7
14:55 1011 29.85 840 24.81 1.6 34.8 43 -9.7 14.5
15:00 1011 29.85 840 24.81 1.4 34.6 46 -9.1 15.7
15:05 1011 29.85 840 24.81 1.5 34.6 44 -9.5 14.9
15:10 1011 29.85 840 24.81 1.3 34.3 43 -9.9 14.2
15:15 1011 29.85 840 24.81 1.4 34.6 45 -9.4 15.1
15:20 1011 29.85 840 24.81 1.5 34.7 44 -9.4 15
15:25 1011 29.85 840 24.81 1.1 34.1 45 -9.5 15
15:30 1011 29.85 840 24.81 0.9 33.6 47 -9.3 15.3
15:35 1011 29.85 840 24.81 0.7 33.3 48 -9.1 15.7
15:40 1011 29.85 841 24.83 0.9 33.7 49 -8.7 16.4
15:45 1011 29.85 841 24.83 0.9 33.7 48 -8.8 16.2
15:50 1011 29.85 841 24.83 1 33.9 49 -8.5 16.7
15:55 1012 29.88 841 24.83 1.2 34.1 50 -8.2 17.2
16:00 1012 29.88 841 24.83 1.3 34.4 48 -8.6 16.4
16:05 1012 29.88 841 24.83 1.2 34.2 48 -8.6 16.4
16:10 1012 29.88 841 24.83 1.3 34.3 49 -8.4 16.9
16:15 1012 29.88 841 24.83 1.3 34.4 47 -8.8 16.1
16:20 1012 29.88 841 24.83 1.5 34.7 46 -8.9 16
16:25 1012 29.88 841 24.83 1.5 34.7 49 -8.1 17.4
16:30 1012 29.88 841 24.83 1.4 34.5 48 -8.5 16.7
16:35 1012 29.88 841 24.83 1.5 34.6 47 -8.7 16.3
16:40 1012 29.88 841 24.83 1.5 34.7 47 -8.5 16.6
16:45 1012 29.88 841 24.83 1.6 34.9 49 -8.1 17.5
16:50 1012 29.88 841 24.83 1.6 34.9 46 -8.7 16.3
16:55 1012 29.88 841 24.83 1.3 34.4 48 -8.4 16.9
17:00 1012 29.88 841 24.83 1.3 34.3 46 -9.2 15.4
17:05 1012 29.88 841 24.83 1.2 34.2 46 -9.2 15.4
17:10 1012 29.88 841 24.83 1.4 34.5 46 -9 15.9
17:15 1012 29.88 841 24.83 1.3 34.4 46 -9 15.9
17:20 1012 29.88 841 24.83 1.3 34.4 45 -9.2 15.4
17:25 1012 29.88 841 24.83 1.4 34.6 44 -9.5 15
17:30 1012 29.88 841 24.83 1.4 34.5 45 -9.3 15.3
17:35 1012 29.88 841 24.83 1.3 34.4 47 -8.9 16
17:40 1012 29.88 842 24.86 1.3 34.4 46 -9 15.8
17:45 1012 29.88 842 24.86 1.3 34.4 50 -8.1 17.4
17:50 1012 29.88 842 24.86 1.1 34 52 -7.7 18.1
17:55 1012 29.88 842 24.86 1 33.7 52 -7.8 17.9
18:00 1012 29.88 842 24.86 0.8 33.4 53 -7.8 18
18:05 1012 29.88 842 24.86 0.6 33 54 -7.7 18.2
18:10 1012 29.88 842 24.86 0.4 32.8 55 -7.6 18.3
18:15 1012 29.88 842 24.86 0.4 32.8 55 -7.6 18.3
18:20 1012 29.88 842 24.86 0.4 32.7 55 -7.5 18.5
18:25 1012 29.88 842 24.86 0.3 32.6 55 -7.7 18.1
18:30 1012 29.88 842 24.86 0.4 32.6 55 -7.7 18.1
18:35 1012 29.88 842 24.86 0.3 32.5 55 -7.7 18.2
18:40 1012 29.88 842 24.86 0.2 32.3 55 -7.8 18
18:45 1012 29.88 842 24.86 0.1 32.2 56 -7.7 18.1
18:50 1012 29.88 842 24.86 0.1 32.1 53 -8.5 16.7
18:55 1012 29.88 842 24.86 0.1 32.2 54 -8.2 17.3
19:00 1012 29.88 842 24.86 0 32.1 55 -8 17.5
19:05 1013 29.91 842 24.86 -0.1 31.9 57 -7.5 18.4
19:10 1013 29.91 842 24.86 -0.2 31.6 57 -7.7 18.1
19:15 1013 29.91 842 24.86 -0.3 31.5 57 -7.8 18
19:20 1013 29.91 842 24.86 -0.2 31.6 55 -8.1 17.4
19:25 1013 29.91 842 24.86 0 32 50 -9.1 15.6
19:30 1013 29.91 842 24.86 0.2 32.4 52 -8.6 16.5
19:35 1013 29.91 842 24.86 0.1 32.1 54 -8.2 17.2
19:40 1013 29.91 842 24.86 -0.2 31.6 56 -8 17.6
19:45 1013 29.91 842 24.86 -0.2 31.6 52 -9.1 15.7
19:50 1013 29.91 842 24.86 0.1 32.1 49 -9.5 14.9
19:55 1013 29.91 842 24.86 0.4 32.7 48 -9.5 15
20:00 1013 29.91 842 24.86 0.4 32.7 50 -8.8 16.2
20:05 1013 29.91 842 24.86 0.1 32.2 50 -9.2 15.5
20:10 1013 29.91 842 24.86 0.1 32.2 51 -8.9 16
20:15 1013 29.91 842 24.86 -0.1 31.9 55 -8.1 17.4
20:20 1013 29.91 842 24.86 -0.3 31.5 59 -7.4 18.7
20:25 1013 29.91 842 24.86 -0.6 30.9 58 -7.9 17.8
20:30 1013 29.91 842 24.86 -0.6 30.9 55 -8.5 16.6
20:35 1013 29.91 842 24.86 -0.3 31.4 52 -8.9 15.9
20:40 1013 29.91 842 24.86 0.1 32.1 51 -8.9 15.9
20:45 1013 29.91 842 24.86 -0 32 54 -8.2 17.2
20:50 1013 29.91 842 24.86 0 32 52 -8.7 16.4
20:55 1013 29.91 842 24.86 0.2 32.4 50 -9.1 15.7
21:00 1013 29.91 842 24.86 0.2 32.4 50 -9 15.9
21:05 1013 29.91 842 24.86 0.2 32.3 52 -8.7 16.4
21:10 1013 29.91 842 24.86 0.1 32.1 54 -8.2 17.3
21:15 1013 29.91 842 24.86 -0 31.9 56 -7.8 18
21:20 1013 29.91 842 24.86 -0.2 31.7 57 -7.7 18.1
21:25 1013 29.91 842 24.86 -0.2 31.6 57 -7.8 18
21:30 1013 29.91 843 24.89 -0.2 31.7 57 -7.7 18.1
21:35 1013 29.91 843 24.89 -0.2 31.6 58 -7.6 18.3
21:40 1013 29.91 843 24.89 -0.3 31.5 57 -7.8 17.9
21:45 1013 29.91 843 24.89 -0.4 31.3 57 -7.9 17.8
21:50 1013 29.91 843 24.89 -0.5 31 57 -8 17.6
21:55 1013 29.91 843 24.89 -0.6 30.9 57 -8 17.6
22:00 1013 29.91 843 24.89 -0.7 30.8 57 -8.2 17.2
22:05 1013 29.91 843 24.89 -0.7 30.7 59 -7.7 18.1
22:10 1014 29.94 843 24.89 -0.9 30.4 59 -7.8 17.9
22:15 1014 29.94 843 24.89 -0.9 30.4 59 -8 17.6
22:20 1014 29.94 843 24.89 -0.9 30.3 59 -8 17.7
22:25 1014 29.94 843 24.89 -1 30.2 59 -8 17.7
22:30 1014 29.94 843 24.89 -1.1 30.1 59 -8.1 17.5
22:35 1014 29.94 843 24.89 -1 30.1 58 -8.3 17
22:40 1014 29.94 843 24.89 -0.9 30.4 58 -8.2 17.2
22:45 1014 29.94 843 24.89 -0.9 30.5 57 -8.3 17.1
22:50 1014 29.94 843 24.89 -0.8 30.5 56 -8.5 16.7
22:55 1014 29.94 843 24.89 -0.9 30.5 57 -8.3 17
23:00 1014 29.94 843 24.89 -0.9 30.5 58 -8.1 17.3
23:05 1014 29.94 843 24.89 -0.9 30.3 58 -8.3 17.1
23:10 1014 29.94 843 24.89 -1.1 30 59 -8.2 17.3
23:15 1014 29.94 843 24.89 -1.3 29.6 60 -8.2 17.3
23:20 1014 29.94 843 24.89 -1.4 29.4 59 -8.3 17
23:25 1014 29.94 843 24.89 -1.5 29.3 61 -8.1 17.4
23:30 1014 29.94 843 24.89 -1.5 29.3 60 -8.3 17.1
23:35 1014 29.94 843 24.89 -1.4 29.6 59 -8.4 16.9
23:40 1014 29.94 843 24.89 -1.2 29.8 57 -8.6 16.5
23:45 1014 29.94 843 24.89 -1 30.3 57 -8.4 17
23:50 1014 29.94 843 24.89 -1 30.3 58 -8.1 17.4
23:55 1014 29.94 843 24.89 -1 30.1 59 -8 17.6
24:00 1014 29.94 843 24.89 -1.1 30 60 -7.9 17.8